Time;durP1;ratioP1;P1;durP2;ratioP2;P2;SDS_P1;SDS_P2;PMS_P1;PMS_P2;Temp;Humidity;BMP_temperature;BMP_pressure;BME280_temperature;BME280_humidity;BME280_pressure;Samples;Min_cycle;Max_cycle;Signal;HPM_P1;HPM_P2
2022/07/23 00:00:24;;;;;;;5.57;2.13;;;14.80;99.90;;;;;;4974760;28;20258;-68
2022/07/23 00:02:51;;;;;;;5.27;2.20;;;14.80;99.90;;;;;;4958278;28;20175;-69
2022/07/23 00:05:19;;;;;;;4.77;1.90;;;14.80;99.90;;;;;;4976322;28;20211;-69
2022/07/23 00:07:47;;;;;;;5.90;1.87;;;14.90;99.90;;;;;;4976367;28;20663;-69
2022/07/23 00:10:15;;;;;;;7.67;2.00;;;14.80;99.90;;;;;;4965878;28;20184;-69
2022/07/23 00:12:43;;;;;;;5.10;2.00;;;14.70;99.90;;;;;;4966172;28;20603;-69
2022/07/23 00:15:11;;;;;;;8.83;1.90;;;14.50;99.90;;;;;;4976158;28;20178;-69
2022/07/23 00:17:39;;;;;;;6.70;1.97;;;14.50;99.90;;;;;;4976130;28;20250;-69
2022/07/23 00:20:07;;;;;;;4.47;2.20;;;14.50;99.90;;;;;;4957087;28;20187;-70
2022/07/23 00:22:35;;;;;;;5.60;2.13;;;14.50;99.90;;;;;;4966481;28;20187;-69
2022/07/23 00:25:03;;;;;;;5.77;2.03;;;14.50;99.90;;;;;;4973737;28;20187;-68
2022/07/23 00:27:30;;;;;;;5.43;2.10;;;14.50;99.90;;;;;;4965976;28;20184;-69
2022/07/23 00:29:58;;;;;;;8.00;2.30;;;14.60;99.90;;;;;;4957494;29;20183;-69
2022/07/23 00:32:26;;;;;;;3.27;2.00;;;14.80;99.90;;;;;;4955835;28;20191;-69
2022/07/23 00:34:53;;;;;;;13.50;2.50;;;14.90;99.90;;;;;;4957180;29;20175;-69
2022/07/23 00:37:21;;;;;;;7.47;2.00;;;15.00;99.90;;;;;;4955318;28;20222;-69
2022/07/23 00:39:49;;;;;;;9.90;2.83;;;15.00;99.90;;;;;;4956195;29;20228;-70
2022/07/23 00:42:16;;;;;;;5.00;1.87;;;14.90;99.90;;;;;;4956550;29;20259;-70
2022/07/23 00:44:44;;;;;;;7.70;2.47;;;15.60;99.90;;;;;;4955002;28;20540;-70
2022/07/23 00:47:12;;;;;;;2.93;1.47;;;16.00;99.90;;;;;;4956354;29;20202;-69
2022/07/23 00:49:43;;;;;;;3.83;1.50;;;16.40;99.90;;;;;;4956011;28;20215;-69
2022/07/23 00:52:11;;;;;;;5.57;1.80;;;16.20;99.90;;;;;;4956109;28;20187;-69
2022/07/23 00:54:39;;;;;;;2.47;1.33;;;16.10;99.90;;;;;;4956143;28;20176;-69
2022/07/23 00:57:07;;;;;;;6.43;1.37;;;15.90;99.90;;;;;;4955894;29;20215;-69
2022/07/23 00:59:34;;;;;;;4.43;1.40;;;16.00;99.90;;;;;;4956137;29;20180;-69
2022/07/23 01:02:02;;;;;;;3.93;1.20;;;16.50;99.90;;;;;;4956057;29;20187;-70
2022/07/23 01:04:30;;;;;;;6.03;1.40;;;16.40;99.90;;;;;;4954848;29;20598;-70
2022/07/23 01:06:58;;;;;;;3.10;1.17;;;16.40;99.90;;;;;;4955978;29;20184;-70
2022/07/23 01:09:26;;;;;;;2.97;1.10;;;16.70;99.90;;;;;;4955928;28;20180;-68
2022/07/23 01:11:56;;;;;;;2.90;1.00;;;17.70;99.90;;;;;;4955796;29;20663;-70
2022/07/23 01:14:24;;;;;;;4.97;1.03;;;18.10;99.90;;;;;;4955935;28;20178;-69
2022/07/23 01:16:52;;;;;;;3.77;1.07;;;18.10;99.90;;;;;;4954504;29;20219;-68
2022/07/23 01:19:20;;;;;;;5.30;1.00;;;17.80;99.90;;;;;;4956188;29;20227;-68
2022/07/23 01:21:51;;;;;;;2.13;1.00;;;17.80;99.90;;;;;;4955907;28;20191;-68
2022/07/23 01:24:19;;;;;;;7.17;1.50;;;17.70;99.90;;;;;;4955625;28;20183;-69
2022/07/23 01:26:48;;;;;;;3.07;1.10;;;17.40;99.90;;;;;;4955657;28;20191;-69
2022/07/23 01:29:17;;;;;;;3.63;1.30;;;17.10;99.90;;;;;;4955583;28;20177;-69
2022/07/23 01:31:44;;;;;;;3.10;1.43;;;17.10;99.90;;;;;;4955783;28;20203;-68
2022/07/23 01:34:12;;;;;;;4.40;1.30;;;16.90;99.90;;;;;;4955469;29;20230;-68
2022/07/23 01:36:40;;;;;;;3.73;1.20;;;16.70;99.90;;;;;;4955496;29;20223;-69
2022/07/23 01:39:10;;;;;;;2.23;1.10;;;16.80;99.90;;;;;;4955276;28;20322;-69
2022/07/23 01:41:37;;;;;;;4.13;1.20;;;16.80;99.90;;;;;;4955859;29;20302;-69
2022/07/23 01:44:05;;;;;;;2.40;1.30;;;17.00;99.90;;;;;;4954200;28;20191;-68
2022/07/23 01:46:33;;;;;;;4.53;1.30;;;16.80;99.90;;;;;;4955397;28;20589;-69
2022/07/23 01:49:00;;;;;;;7.83;1.50;;;16.80;99.90;;;;;;4955405;28;20267;-69
2022/07/23 01:51:28;;;;;;;4.10;1.30;;;16.70;99.90;;;;;;4955235;29;20183;-69
2022/07/23 01:53:56;;;;;;;2.07;1.00;;;16.60;99.90;;;;;;4954026;28;20601;-69
2022/07/23 01:56:24;;;;;;;5.27;1.83;;;16.40;99.90;;;;;;4954643;28;20200;-69
2022/07/23 01:58:51;;;;;;;2.63;1.20;;;16.40;99.90;;;;;;4955961;28;20203;-69
2022/07/23 02:01:19;;;;;;;10.57;1.67;;;16.30;99.90;;;;;;4955350;28;20183;-69
2022/07/23 02:03:47;;;;;;;6.80;1.60;;;16.40;99.90;;;;;;4955085;29;20543;-70
2022/07/23 02:06:14;;;;;;;3.50;1.03;;;16.50;99.90;;;;;;4955142;29;20520;-69
2022/07/23 02:08:42;;;;;;;7.10;1.20;;;17.50;99.90;;;;;;4955057;29;20606;-70
2022/07/23 02:11:10;;;;;;;3.50;1.50;;;18.10;99.90;;;;;;4954926;28;20190;-70
2022/07/23 02:13:37;;;;;;;5.03;1.40;;;18.90;99.90;;;;;;4955135;28;20264;-70
2022/07/23 02:16:05;;;;;;;5.17;1.40;;;19.10;99.90;;;;;;4954886;29;20227;-70
2022/07/23 02:18:33;;;;;;;7.23;0.90;;;19.80;99.90;;;;;;4955083;29;20185;-69
2022/07/23 02:21:00;;;;;;;4.17;0.97;;;19.50;99.90;;;;;;4955146;29;20644;-68
2022/07/23 02:23:28;;;;;;;2.97;1.30;;;19.20;99.90;;;;;;4955147;29;20237;-68
2022/07/23 02:25:56;;;;;;;6.67;1.17;;;18.50;99.90;;;;;;4954193;28;20199;-68
2022/07/23 02:28:24;;;;;;;5.93;1.27;;;18.00;99.90;;;;;;4955102;29;20233;-69
2022/07/23 02:30:51;;;;;;;3.03;1.13;;;17.60;99.90;;;;;;4954676;28;20176;-69
2022/07/23 02:33:19;;;;;;;6.47;1.70;;;17.30;99.90;;;;;;4958817;28;20286;-67
2022/07/23 02:35:47;;;;;;;6.23;1.40;;;16.80;99.90;;;;;;4961465;28;20183;-66
2022/07/23 02:38:14;;;;;;;5.80;1.30;;;16.50;99.90;;;;;;4961376;28;20294;-67
2022/07/23 02:40:42;;;;;;;2.27;1.30;;;16.30;99.90;;;;;;4952101;29;20732;-66
2022/07/23 02:43:10;;;;;;;3.17;1.00;;;16.10;99.90;;;;;;4951958;29;20585;-67
2022/07/23 02:45:38;;;;;;;4.90;1.13;;;16.00;99.90;;;;;;4960292;28;20263;-67
2022/07/23 02:48:06;;;;;;;1.87;1.10;;;15.80;99.90;;;;;;4953689;28;20196;-67
2022/07/23 02:50:34;;;;;;;1.83;0.97;;;15.60;99.90;;;;;;4953235;29;20177;-66
2022/07/23 02:53:02;;;;;;;4.07;1.40;;;15.50;99.90;;;;;;4953473;29;20645;-67
2022/07/23 02:55:31;;;;;;;2.40;1.13;;;15.50;99.90;;;;;;4952710;28;20209;-67
2022/07/23 02:57:58;;;;;;;2.37;0.97;;;15.50;99.90;;;;;;4953061;28;20235;-67
2022/07/23 03:00:26;;;;;;;2.87;1.20;;;15.60;99.90;;;;;;4965459;28;20328;-68
2022/07/23 03:02:54;;;;;;;3.23;1.50;;;15.60;99.90;;;;;;4970510;28;20190;-66
2022/07/23 03:05:22;;;;;;;3.50;1.60;;;15.70;99.90;;;;;;4972351;28;20179;-67
2022/07/23 03:07:49;;;;;;;2.63;1.63;;;15.90;99.90;;;;;;4974373;28;20175;-67
2022/07/23 03:10:17;;;;;;;5.53;2.00;;;16.20;99.90;;;;;;4975818;28;20184;-65
2022/07/23 03:12:45;;;;;;;6.47;1.80;;;17.00;99.90;;;;;;4976066;28;20182;-66
2022/07/23 03:15:12;;;;;;;4.80;1.57;;;17.60;99.90;;;;;;4975897;28;20183;-66
2022/07/23 03:17:40;;;;;;;1.47;1.17;;;17.70;99.90;;;;;;4975850;28;20219;-67
2022/07/23 03:20:08;;;;;;;3.10;1.30;;;17.80;99.90;;;;;;4969337;28;20183;-66
2022/07/23 03:22:36;;;;;;;3.37;1.13;;;18.00;99.90;;;;;;4974117;28;20194;-67
2022/07/23 03:25:04;;;;;;;3.70;1.27;;;18.30;99.90;;;;;;4974508;28;20187;-67
2022/07/23 03:27:32;;;;;;;6.93;1.20;;;18.60;99.90;;;;;;4975660;28;20199;-67
2022/07/23 03:30:01;;;;;;;4.70;1.70;;;19.50;99.90;;;;;;4975647;28;20172;-68
2022/07/23 03:32:29;;;;;;;3.90;1.30;;;19.80;99.90;;;;;;4975650;28;20262;-66
2022/07/23 03:34:57;;;;;;;3.70;0.83;;;19.80;99.90;;;;;;4975603;28;20238;-67
2022/07/23 03:37:25;;;;;;;2.53;1.00;;;19.60;99.90;;;;;;4975327;28;20223;-67
2022/07/23 03:39:53;;;;;;;4.33;1.20;;;19.50;99.90;;;;;;4975262;28;20255;-66
2022/07/23 03:42:21;;;;;;;2.17;1.20;;;19.10;99.90;;;;;;4974207;28;20180;-66
2022/07/23 03:44:49;;;;;;;2.53;1.23;;;18.60;99.90;;;;;;4974807;28;20188;-66
2022/07/23 03:47:17;;;;;;;3.97;1.50;;;18.00;99.90;;;;;;4974033;28;20237;-66
2022/07/23 03:49:45;;;;;;;2.03;1.00;;;17.50;99.90;;;;;;4975238;28;20645;-68
2022/07/23 03:52:12;;;;;;;3.27;1.27;;;17.10;99.90;;;;;;4975113;28;20274;-67
2022/07/23 03:54:40;;;;;;;1.73;0.77;;;16.80;99.90;;;;;;4970561;28;20199;-67
2022/07/23 03:57:08;;;;;;;2.13;0.77;;;16.50;99.90;;;;;;4966313;28;20589;-68
2022/07/23 03:59:35;;;;;;;2.00;0.70;;;16.40;99.90;;;;;;4975111;28;20633;-67
2022/07/23 04:02:03;;;;;;;3.70;0.83;;;16.20;99.90;;;;;;4975021;28;20665;-66
2022/07/23 04:04:31;;;;;;;4.03;1.30;;;16.00;99.90;;;;;;4958997;28;20577;-67
2022/07/23 04:06:59;;;;;;;3.60;1.27;;;16.00;99.90;;;;;;4970647;28;20179;-66
2022/07/23 04:09:27;;;;;;;3.00;1.30;;;16.10;99.90;;;;;;4962012;28;20187;-66
2022/07/23 04:11:55;;;;;;;3.93;1.27;;;16.20;99.90;;;;;;4965944;28;20198;-68
2022/07/23 04:14:22;;;;;;;3.63;1.77;;;16.20;99.90;;;;;;4974670;28;20262;-67
2022/07/23 04:16:50;;;;;;;3.87;1.63;;;16.20;99.90;;;;;;4967399;28;20219;-67
2022/07/23 04:19:18;;;;;;;4.17;1.70;;;16.20;99.90;;;;;;4955693;28;20188;-67
2022/07/23 04:21:45;;;;;;;3.10;1.50;;;16.30;99.90;;;;;;4955397;29;20183;-68
2022/07/23 04:24:13;;;;;;;4.10;1.57;;;16.60;99.90;;;;;;4959244;28;20562;-68
2022/07/23 04:26:41;;;;;;;6.57;1.30;;;16.60;99.90;;;;;;4974029;28;20329;-67
2022/07/23 04:29:09;;;;;;;6.33;1.20;;;16.80;99.90;;;;;;4955259;29;20267;-67
2022/07/23 04:31:36;;;;;;;2.00;1.20;;;17.20;99.90;;;;;;4955070;29;20183;-68
2022/07/23 04:34:04;;;;;;;2.53;0.90;;;17.50;99.90;;;;;;4962517;28;20675;-68
2022/07/23 04:36:32;;;;;;;2.60;1.40;;;17.50;99.90;;;;;;4973975;28;20305;-68
2022/07/23 04:39:00;;;;;;;5.80;1.03;;;17.50;99.90;;;;;;4971506;28;20731;-68
2022/07/23 04:41:27;;;;;;;1.93;1.10;;;17.50;99.90;;;;;;4955148;29;20176;-69
2022/07/23 04:43:55;;;;;;;3.23;1.10;;;17.40;99.90;;;;;;4954728;28;20210;-68
2022/07/23 04:46:23;;;;;;;4.63;1.27;;;17.30;99.90;;;;;;4954914;29;20633;-69
2022/07/23 04:48:50;;;;;;;1.90;1.10;;;17.30;99.90;;;;;;4954813;29;20318;-68
2022/07/23 04:51:18;;;;;;;3.73;1.10;;;17.60;99.90;;;;;;4959056;28;20183;-67
2022/07/23 04:53:46;;;;;;;4.50;1.00;;;18.10;99.90;;;;;;4974105;28;20597;-67
2022/07/23 04:56:14;;;;;;;3.07;0.73;;;18.20;99.90;;;;;;4973940;28;20665;-67
2022/07/23 04:58:41;;;;;;;1.90;0.80;;;18.00;99.90;;;;;;4955453;28;20203;-67
2022/07/23 05:01:09;;;;;;;2.33;0.83;;;17.50;99.90;;;;;;4954497;29;20185;-68
2022/07/23 05:03:37;;;;;;;1.63;0.80;;;16.90;99.90;;;;;;4961012;28;20201;-67
2022/07/23 05:06:05;;;;;;;0.97;0.87;;;16.40;99.90;;;;;;4973772;28;20191;-69
2022/07/23 05:08:32;;;;;;;0.70;0.70;;;16.10;99.90;;;;;;4973734;28;20176;-68
2022/07/23 05:11:00;;;;;;;1.77;0.80;;;15.80;99.90;;;;;;4973612;28;20196;-69
2022/07/23 05:13:28;;;;;;;0.70;0.67;;;15.60;99.90;;;;;;4973597;28;20634;-68
2022/07/23 05:15:56;;;;;;;1.67;0.60;;;15.50;99.90;;;;;;4955284;28;20195;-68
2022/07/23 05:18:23;;;;;;;0.70;0.70;;;15.50;99.90;;;;;;4954273;29;20302;-67
2022/07/23 05:20:51;;;;;;;0.87;0.60;;;15.50;99.90;;;;;;4954261;29;20217;-68
2022/07/23 05:23:19;;;;;;;1.37;0.80;;;15.40;99.90;;;;;;4954289;29;20249;-68
2022/07/23 05:25:47;;;;;;;0.83;0.80;;;15.50;99.90;;;;;;4954489;28;20180;-68
2022/07/23 05:28:14;;;;;;;1.27;0.93;;;15.50;99.90;;;;;;4973475;28;20262;-67
2022/07/23 05:30:42;;;;;;;1.57;0.70;;;15.60;99.90;;;;;;4971667;28;20619;-68
2022/07/23 05:33:10;;;;;;;1.00;0.80;;;15.60;99.90;;;;;;4973719;28;20189;-68
2022/07/23 05:35:38;;;;;;;1.00;0.70;;;15.70;99.90;;;;;;4973306;28;20197;-67
2022/07/23 05:38:06;;;;;;;1.20;0.73;;;15.80;99.90;;;;;;4968814;28;20699;-67
2022/07/23 05:40:33;;;;;;;1.43;0.73;;;15.90;99.90;;;;;;4959542;28;20226;-67
2022/07/23 05:43:01;;;;;;;2.40;0.57;;;16.00;99.90;;;;;;4971068;28;20196;-68
2022/07/23 05:45:29;;;;;;;2.20;0.70;;;15.80;99.90;;;;;;4963268;28;20207;-67
2022/07/23 05:47:57;;;;;;;1.10;0.70;;;15.60;99.90;;;;;;4972052;28;20195;-68
2022/07/23 05:50:24;;;;;;;2.73;0.87;;;15.50;99.90;;;;;;4973068;28;20625;-68
2022/07/23 05:52:55;;;;;;;1.80;0.87;;;15.40;99.90;;;;;;4955084;28;20192;-67
2022/07/23 05:55:23;;;;;;;0.87;0.87;;;15.20;99.90;;;;;;4953737;29;20204;-68
2022/07/23 05:57:51;;;;;;;0.70;0.70;;;15.20;99.90;;;;;;4959118;28;20218;-68
2022/07/23 06:00:18;;;;;;;0.93;0.70;;;15.20;99.90;;;;;;4973105;28;20221;-68
2022/07/23 06:02:46;;;;;;;0.87;0.87;;;15.20;99.90;;;;;;4973163;28;20564;-67
2022/07/23 06:05:14;;;;;;;0.70;0.70;;;15.20;99.90;;;;;;4959600;28;20187;-67
2022/07/23 06:07:41;;;;;;;3.70;0.80;;;15.20;99.90;;;;;;4954870;28;20236;-67
2022/07/23 06:10:10;;;;;;;1.07;0.90;;;15.10;99.90;;;;;;4964954;28;20187;-67
2022/07/23 06:12:38;;;;;;;1.00;0.90;;;15.10;99.90;;;;;;4953705;28;20653;-68
2022/07/23 06:15:06;;;;;;;1.17;0.90;;;15.10;99.90;;;;;;4953756;28;20180;-68
2022/07/23 06:17:34;;;;;;;2.23;0.90;;;15.10;99.90;;;;;;4953780;29;20230;-68
2022/07/23 06:20:01;;;;;;;2.70;1.50;;;15.00;99.90;;;;;;4953591;29;20184;-68
2022/07/23 06:22:29;;;;;;;2.63;1.40;;;15.00;99.90;;;;;;4963599;28;20194;-67
2022/07/23 06:24:57;;;;;;;1.83;1.40;;;14.90;99.90;;;;;;4962770;28;20187;-68
2022/07/23 06:27:24;;;;;;;1.37;1.03;;;14.90;99.90;;;;;;4953601;29;20180;-67
2022/07/23 06:29:52;;;;;;;1.80;1.00;;;14.90;99.90;;;;;;4970468;28;20203;-67
2022/07/23 06:32:20;;;;;;;1.20;1.07;;;14.90;99.90;;;;;;4972672;28;20544;-68
2022/07/23 06:34:48;;;;;;;2.33;1.33;;;14.80;99.90;;;;;;4972702;28;20194;-67
2022/07/23 06:37:16;;;;;;;2.93;1.30;;;14.80;99.90;;;;;;4972623;28;20607;-67
2022/07/23 06:39:44;;;;;;;3.27;1.40;;;14.70;99.90;;;;;;4972577;28;20223;-68
2022/07/23 06:42:12;;;;;;;4.60;1.23;;;14.70;99.90;;;;;;4974120;28;20187;-68
2022/07/23 06:44:39;;;;;;;1.77;1.20;;;14.70;99.90;;;;;;4976327;28;20270;-68
2022/07/23 06:47:07;;;;;;;2.90;2.30;;;14.70;99.90;;;;;;4976367;28;20205;-68
2022/07/23 06:49:35;;;;;;;6.67;3.47;;;14.60;99.90;;;;;;4976300;28;20186;-67
2022/07/23 06:52:02;;;;;;;2.50;1.93;;;14.60;99.90;;;;;;4976389;28;20249;-67
2022/07/23 06:54:30;;;;;;;3.10;1.37;;;14.60;99.90;;;;;;4976451;28;20179;-67
2022/07/23 06:56:58;;;;;;;3.40;2.27;;;14.60;99.90;;;;;;4976257;28;20698;-67
2022/07/23 06:59:25;;;;;;;3.23;1.70;;;14.60;99.90;;;;;;4976338;28;20274;-68
2022/07/23 07:01:53;;;;;;;4.33;1.73;;;14.60;99.90;;;;;;4969982;28;20194;-67
2022/07/23 07:04:21;;;;;;;2.10;1.80;;;14.60;99.90;;;;;;4976255;28;20262;-67
2022/07/23 07:06:49;;;;;;;2.87;1.70;;;14.60;99.90;;;;;;4975953;28;20545;-66
2022/07/23 07:09:17;;;;;;;2.63;1.93;;;14.60;99.90;;;;;;4975777;28;20245;-67
2022/07/23 07:11:45;;;;;;;2.67;2.47;;;14.50;99.90;;;;;;4974623;28;20186;-67
2022/07/23 07:14:13;;;;;;;2.70;1.93;;;14.50;99.90;;;;;;4974613;28;20562;-67
2022/07/23 07:16:40;;;;;;;3.60;2.10;;;14.60;99.90;;;;;;4975746;28;20218;-66
2022/07/23 07:19:08;;;;;;;2.70;2.20;;;14.50;99.90;;;;;;4971100;28;20195;-67
2022/07/23 07:21:36;;;;;;;3.40;2.13;;;14.50;99.90;;;;;;4962057;28;20198;-67
2022/07/23 07:24:04;;;;;;;3.77;2.40;;;14.40;99.90;;;;;;4957180;28;20188;-66
2022/07/23 07:26:32;;;;;;;5.60;2.13;;;14.40;99.90;;;;;;4974246;28;20190;-66
2022/07/23 07:28:59;;;;;;;4.13;2.10;;;14.40;99.90;;;;;;4975690;28;20175;-66
2022/07/23 07:31:27;;;;;;;2.80;1.90;;;14.40;99.90;;;;;;4975520;28;20187;-66
2022/07/23 07:33:56;;;;;;;5.43;3.30;;;14.30;99.90;;;;;;4975675;28;20556;-67
2022/07/23 07:36:24;;;;;;;4.53;2.70;;;14.30;99.90;;;;;;4973275;28;20956;-67
2022/07/23 07:38:52;;;;;;;6.03;4.70;;;14.30;99.90;;;;;;4956177;28;20186;-67
2022/07/23 07:41:23;;;;;;;10.33;8.27;;;14.30;99.90;;;;;;4956192;29;20233;-67
2022/07/23 07:43:52;;;;;;;6.43;5.23;;;14.20;99.90;;;;;;4956466;28;20194;-67
2022/07/23 07:46:19;;;;;;;8.87;6.67;;;14.20;99.90;;;;;;4955376;29;20516;-68
2022/07/23 07:48:47;;;;;;;6.10;4.20;;;14.20;99.90;;;;;;4955997;29;20535;-67
2022/07/23 07:51:15;;;;;;;8.70;6.70;;;14.20;99.90;;;;;;4955897;29;21052;-67
2022/07/23 07:53:42;;;;;;;6.87;3.60;;;14.20;99.90;;;;;;4954938;28;20549;-68
2022/07/23 07:56:10;;;;;;;5.93;3.23;;;14.20;99.90;;;;;;4955849;28;20641;-68
2022/07/23 09:32:23;;;;;;;19.87;11.30;;;12.70;99.90;;;;;;5131340;27;20589;-68
2022/07/23 09:34:51;;;;;;;20.93;12.53;;;12.70;99.90;;;;;;5097044;28;20188;-67
2022/07/23 09:37:20;;;;;;;18.63;11.03;;;12.70;99.90;;;;;;5111102;28;20181;-67
2022/07/23 09:39:49;;;;;;;16.40;10.90;;;12.70;99.90;;;;;;5110771;28;20182;-68
2022/07/23 09:42:21;;;;;;;20.57;11.40;;;12.70;99.90;;;;;;5110823;28;20201;-67
2022/07/23 09:44:50;;;;;;;17.93;10.57;;;12.70;99.90;;;;;;5114703;28;20182;-67
2022/07/23 09:47:19;;;;;;;18.33;11.07;;;12.60;99.90;;;;;;5109995;28;20537;-67
2022/07/23 09:50:12;;;;;;;16.60;10.07;;;12.60;99.90;;;;;;5110778;28;20292;-68
2022/07/23 09:52:48;;;;;;;15.23;8.93;;;12.40;99.90;;;;;;5110948;28;20178;-67
2022/07/23 09:55:17;;;;;;;14.50;9.83;;;12.40;99.90;;;;;;5110826;28;20616;-68
2022/07/23 09:57:52;;;;;;;19.50;11.97;;;12.30;99.90;;;;;;5110191;28;20204;-67
2022/07/23 10:00:20;;;;;;;23.37;16.40;;;12.20;99.90;;;;;;5110689;28;20188;-68
2022/07/23 10:02:49;;;;;;;19.67;13.53;;;12.10;99.90;;;;;;5110576;28;20209;-67
2022/07/23 10:05:17;;;;;;;13.43;10.20;;;12.10;99.90;;;;;;5110092;28;20177;-68
2022/07/23 10:07:46;;;;;;;13.50;9.50;;;12.00;99.90;;;;;;5109992;28;20234;-67
2022/07/23 10:10:15;;;;;;;12.57;9.43;;;12.00;99.90;;;;;;5110293;28;20292;-68
2022/07/23 10:15:30;;;;;;;12.40;7.90;;;11.70;99.90;;;;;;5110128;28;20258;-68
2022/07/23 10:17:58;;;;;;;12.20;9.00;;;11.70;99.90;;;;;;5110573;28;20185;-68
2022/07/23 10:20:26;;;;;;;9.60;8.00;;;11.60;99.90;;;;;;5110000;28;20242;-68
2022/07/23 10:23:16;;;;;;;12.00;8.70;;;11.60;99.90;;;;;;5110094;28;20230;-69
2022/07/23 10:26:10;;;;;;;12.43;9.10;;;11.50;99.90;;;;;;5080602;28;20197;-69
2022/07/23 10:29:03;;;;;;;10.73;7.60;;;11.50;99.90;;;;;;5106109;28;20193;-68
2022/07/23 10:32:13;;;;;;;12.67;8.13;;;11.60;99.90;;;;;;5106039;28;20339;-70
2022/07/23 10:35:04;;;;;;;10.63;8.03;;;11.50;99.90;;;;;;5067296;28;20197;-68
2022/07/23 10:37:40;;;;;;;10.83;8.13;;;11.40;99.90;;;;;;5096067;28;20672;-69
2022/07/23 10:40:16;;;;;;;12.63;9.43;;;11.30;99.90;;;;;;5096301;28;20172;-69
2022/07/23 10:42:46;;;;;;;14.23;8.70;;;11.20;99.90;;;;;;5077680;28;20238;-69
2022/07/23 10:45:39;;;;;;;13.00;9.43;;;11.20;99.90;;;;;;5096053;28;20169;-69
2022/07/23 10:48:17;;;;;;;11.57;8.47;;;11.20;99.90;;;;;;5095784;28;20189;-71
2022/07/23 10:51:06;;;;;;;12.53;9.23;;;11.10;99.90;;;;;;5096118;28;20217;-67
2022/07/23 10:53:52;;;;;;;14.97;10.20;;;11.20;99.90;;;;;;5077716;28;20185;-69
2022/07/23 10:56:57;;;;;;;10.87;9.47;;;11.20;99.90;;;;;;5095450;28;20189;-69
2022/07/23 10:59:25;;;;;;;11.03;9.17;;;11.10;99.90;;;;;;5092611;28;20190;-69
2022/07/23 11:01:53;;;;;;;14.93;9.20;;;11.10;99.90;;;;;;5095828;28;20182;-69
2022/07/23 11:04:40;;;;;;;12.57;8.60;;;11.10;99.90;;;;;;5095770;28;20537;-68
2022/07/23 11:07:09;;;;;;;9.67;8.17;;;11.00;99.90;;;;;;5095927;28;20191;-69
2022/07/23 11:09:42;;;;;;;11.50;8.67;;;10.90;99.90;;;;;;5095503;28;20565;-69
2022/07/23 11:12:22;;;;;;;10.93;8.50;;;10.80;99.90;;;;;;5095691;28;20189;-69
2022/07/23 11:15:14;;;;;;;12.27;8.57;;;10.80;99.90;;;;;;5096544;28;20243;-68
2022/07/23 11:17:51;;;;;;;15.23;10.43;;;10.70;99.90;;;;;;5095331;28;20271;-69
2022/07/23 11:20:28;;;;;;;13.30;10.73;;;10.70;99.90;;;;;;5095776;28;20180;-69
2022/07/23 11:23:00;;;;;;;12.53;9.53;;;10.70;99.90;;;;;;5096096;28;20246;-69
2022/07/23 11:25:30;;;;;;;16.40;11.30;;;10.80;99.90;;;;;;5095708;28;20206;-68
2022/07/23 11:28:21;;;;;;;16.07;11.17;;;10.80;99.90;;;;;;5095281;28;20260;-68
2022/07/23 11:30:49;;;;;;;15.53;10.47;;;10.70;99.90;;;;;;5092859;28;20230;-69
2022/07/23 11:33:19;;;;;;;14.27;10.30;;;10.70;99.90;;;;;;5095461;28;20184;-69
2022/07/23 11:36:01;;;;;;;14.67;10.57;;;10.60;99.90;;;;;;5077103;28;20529;-68
2022/07/23 11:38:32;;;;;;;14.90;9.70;;;10.50;99.90;;;;;;5095317;28;20299;-68
2022/07/23 11:41:00;;;;;;;15.80;10.50;;;10.40;99.90;;;;;;5095611;28;20183;-69
2022/07/23 11:43:29;;;;;;;18.87;11.33;;;10.50;99.90;;;;;;5094386;28;20187;-68
2022/07/23 11:46:01;;;;;;;15.77;11.07;;;10.50;99.90;;;;;;5095420;28;20306;-69
2022/07/23 11:48:31;;;;;;;13.80;9.87;;;10.50;99.90;;;;;;5094768;28;20176;-69
2022/07/23 11:50:59;;;;;;;15.67;10.40;;;10.50;99.90;;;;;;5094647;28;20210;-69
2022/07/23 11:53:31;;;;;;;14.40;10.27;;;10.50;99.90;;;;;;5094825;28;20673;-69
2022/07/23 11:56:06;;;;;;;16.23;11.37;;;10.40;99.90;;;;;;5095546;28;20170;-68
2022/07/23 11:58:34;;;;;;;15.07;10.83;;;10.40;99.90;;;;;;5094744;28;20183;-68
2022/07/23 12:01:02;;;;;;;14.83;9.83;;;10.40;99.90;;;;;;5094518;28;20252;-68
2022/07/23 12:03:30;;;;;;;15.07;10.93;;;10.30;99.90;;;;;;5094689;28;20671;-68
2022/07/23 12:05:59;;;;;;;12.07;9.73;;;10.30;99.90;;;;;;5094904;28;20687;-69
2022/07/23 12:08:27;;;;;;;12.27;10.03;;;10.30;99.90;;;;;;5095073;28;20184;-68
2022/07/23 12:10:55;;;;;;;15.77;10.83;;;10.30;99.90;;;;;;5094553;28;20242;-70
2022/07/23 12:13:23;;;;;;;10.97;9.27;;;10.30;99.90;;;;;;5094071;28;20171;-68
2022/07/23 12:15:53;;;;;;;11.70;9.67;;;10.30;99.90;;;;;;5094593;28;20196;-69
2022/07/23 12:18:25;;;;;;;11.03;9.70;;;10.20;99.90;;;;;;5094641;28;20175;-69
2022/07/23 12:21:03;;;;;;;11.30;9.90;;;10.20;99.90;;;;;;5094729;28;20228;-70
2022/07/23 12:23:30;;;;;;;11.90;9.30;;;10.30;99.90;;;;;;5081780;28;20233;-69
2022/07/23 12:26:03;;;;;;;12.27;9.13;;;10.30;99.90;;;;;;5093820;28;20191;-69
2022/07/23 12:28:37;;;;;;;13.13;10.00;;;10.30;99.90;;;;;;5099637;28;20534;-69
2022/07/23 12:31:05;;;;;;;11.97;8.50;;;10.20;99.90;;;;;;5093621;28;20239;-69
2022/07/23 12:33:36;;;;;;;12.17;9.23;;;10.20;99.90;;;;;;5083234;28;20167;-69
2022/07/23 12:36:06;;;;;;;10.53;8.47;;;10.20;99.90;;;;;;5094628;28;20682;-69
2022/07/23 12:38:48;;;;;;;11.07;8.27;;;10.20;99.90;;;;;;5094510;28;20627;-69
2022/07/23 12:41:17;;;;;;;11.70;8.93;;;10.10;99.90;;;;;;5093999;28;20176;-68
2022/07/23 12:43:46;;;;;;;10.40;8.27;;;10.10;99.90;;;;;;5093335;28;20185;-69
2022/07/23 12:46:19;;;;;;;13.30;9.10;;;10.00;99.90;;;;;;5093976;28;20236;-69
2022/07/23 12:48:50;;;;;;;8.90;7.63;;;10.00;99.90;;;;;;5073974;28;20177;-69
2022/07/23 12:51:23;;;;;;;8.90;7.67;;;10.00;99.90;;;;;;5092445;28;20215;-69
2022/07/23 12:53:54;;;;;;;9.10;7.87;;;10.00;99.90;;;;;;5075850;28;20191;-69
2022/07/23 12:56:26;;;;;;;13.00;8.47;;;10.00;99.90;;;;;;5093967;28;20221;-69
2022/07/23 12:59:06;;;;;;;8.73;7.70;;;9.90;99.90;;;;;;5093872;28;20212;-68
2022/07/23 13:01:41;;;;;;;9.40;7.63;;;9.90;99.90;;;;;;5093729;28;20202;-69
2022/07/23 13:04:20;;;;;;;8.73;7.83;;;9.90;99.90;;;;;;5093910;28;20590;-70
2022/07/23 13:06:52;;;;;;;9.00;7.10;;;10.00;99.90;;;;;;5073866;28;20685;-69
2022/07/23 13:09:25;;;;;;;10.47;7.47;;;10.00;99.90;;;;;;5074263;28;20175;-69
2022/07/23 13:11:55;;;;;;;8.67;7.77;;;10.10;99.90;;;;;;5079761;28;20666;-68
2022/07/23 13:14:24;;;;;;;8.03;6.87;;;10.20;99.90;;;;;;5094454;28;20637;-70
2022/07/23 13:16:53;;;;;;;10.47;6.87;;;10.20;99.90;;;;;;5099967;28;20264;-69
2022/07/23 13:19:24;;;;;;;9.40;8.33;;;10.20;99.90;;;;;;5117887;28;20180;-67
2022/07/23 13:21:52;;;;;;;12.73;10.60;;;10.20;99.90;;;;;;5125369;27;20247;-69
2022/07/23 13:24:21;;;;;;;12.63;10.13;;;10.20;99.90;;;;;;5113933;28;20287;-68
2022/07/23 13:26:50;;;;;;;11.60;9.57;;;10.20;99.90;;;;;;5097274;28;20193;-68
2022/07/23 13:29:18;;;;;;;16.43;13.10;;;10.20;99.90;;;;;;5093395;28;20602;-68
2022/07/23 13:31:46;;;;;;;15.43;11.67;;;10.20;99.90;;;;;;5092867;28;20233;-69
2022/07/23 13:34:13;;;;;;;16.83;13.60;;;10.20;99.90;;;;;;5093663;28;20238;-69
2022/07/23 13:36:43;;;;;;;12.17;10.80;;;10.30;99.90;;;;;;5075425;28;20191;-69
2022/07/23 13:39:10;;;;;;;12.27;9.77;;;10.40;99.90;;;;;;5075494;28;20274;-68
2022/07/23 13:41:39;;;;;;;11.07;9.00;;;10.50;99.90;;;;;;5092795;28;20192;-69
2022/07/23 13:44:07;;;;;;;9.90;8.10;;;10.50;99.90;;;;;;5093119;28;20168;-67
2022/07/23 13:46:36;;;;;;;11.23;8.00;;;10.60;99.90;;;;;;5093314;28;20230;-69
2022/07/23 13:49:04;;;;;;;10.60;7.83;;;10.70;99.90;;;;;;5075564;28;20175;-69
2022/07/23 13:51:32;;;;;;;9.87;7.60;;;10.80;99.90;;;;;;5092705;28;20240;-67
2022/07/23 13:54:04;;;;;;;8.60;7.70;;;10.90;99.90;;;;;;5093025;28;20253;-69
2022/07/23 13:56:31;;;;;;;10.10;8.03;;;11.00;99.90;;;;;;5093513;28;20656;-68
2022/07/23 13:58:59;;;;;;;10.47;7.70;;;11.00;99.90;;;;;;5093282;28;20646;-68
2022/07/23 14:01:27;;;;;;;8.40;7.27;;;11.00;99.90;;;;;;5092945;28;20606;-69
2022/07/23 14:03:54;;;;;;;12.37;7.90;;;11.00;99.90;;;;;;5093282;28;20184;-68
2022/07/23 14:06:22;;;;;;;10.60;7.77;;;11.00;99.90;;;;;;5092686;28;20189;-69
2022/07/23 14:08:50;;;;;;;10.60;7.87;;;11.00;99.90;;;;;;5096929;28;20194;-69
2022/07/23 14:11:18;;;;;;;12.17;8.00;;;11.10;99.90;;;;;;5096830;28;20217;-68
2022/07/23 14:13:45;;;;;;;9.77;8.37;;;11.10;99.90;;;;;;5112617;28;20280;-69
2022/07/23 14:16:13;;;;;;;12.97;9.83;;;11.20;99.90;;;;;;5097003;28;20180;-69
2022/07/23 14:18:41;;;;;;;10.10;8.17;;;11.30;99.90;;;;;;5096443;28;20189;-69
2022/07/23 14:21:08;;;;;;;13.23;8.87;;;11.30;99.90;;;;;;5078534;28;20180;-69
2022/07/23 14:23:36;;;;;;;11.90;9.57;;;11.30;99.90;;;;;;5096484;28;20186;-69
2022/07/23 14:26:04;;;;;;;13.03;10.53;;;11.40;99.90;;;;;;5097700;28;20590;-69
2022/07/23 14:28:34;;;;;;;13.97;11.60;;;11.40;99.90;;;;;;5096856;28;20660;-69
2022/07/23 14:31:02;;;;;;;14.47;11.20;;;11.40;99.90;;;;;;5096022;28;20234;-69